Ana Sayfa
METAR-TAF:

METAR-TAF

Havaalanları :

Medan, Kuzey Sumatra, Endonezya

Enlem: 03-34N, Boylam: 098-41E, yükseklik: 25 m

Güncel hava durumu gözlemi

Rapor saat 16:00 UTC de 31 dakika önce yapıldı.
Rüzgar güney/güneybatıdan 5 kt
Sıcaklık 27°C
Nem 94%
Basınç 1012 hPa
Görüş mesafesi: 4500 m
1700 ft yükseklikte parçalı bulutlu
Toz Pusu

METAR: WIMM 051600Z 21005KT 4500 HZ SCT017 27/26 Q1012 NOSIG

Saat: 23:31 (16:31 UTC)

Tahmin

Rapor saat 11:00 UTC de 5 saat ve 31 dakika önce yapıldı.
Ayın 05'si saat 12 UTC'den ayın 06'si saat 12 UTC'ye kadar geçerli Tahmin
Rüzgar değişken yönden 4 kt
Görüş mesafesi: 3000 m
1700 ft yükseklikte parçalı bulutlu
Toz Pusu
Dönüşüyor
ayın 06'si saat 02 UTC'den ayın 06'si saat 04 UTC'ye kadar
Rüzgar kuzey/kuzeydoğudan 10 kt
Görüş mesafesi: 9000 m

TAF: WIMM 051100Z 0512/0612 VRB04KT 3000 HZ SCT017 BECMG 0602/0604 02010KT 9000 NSW

4.000'den fazla havaalanı için hava durumu gözlemleri ve tahminleri (METAR ve TAF raporları).

Kullanılabilir istasyonlar harita üzerinde sarı ve kırmızı noktalarla gösterilir.

İstasyonun adını görmek için fareyi noktanın üzerinde gezdirin.

Sonrasında hava gözlem ve tahminlerini görmek için tıklayın.

Haritayı değiştirmek için: yaklaştırmak için siyah artı işaretli yeşil düğmeye ve uzaklaştırmak için de eksi işaretli düğmeye hızla tıklayın; bitişik haritalar için yeşil okları kullanın.


METAR-TAF: